sensor_id;sensor_type;location;lat;lon;timestamp;P1;durP1;ratioP1;P2;durP2;ratioP2
37823;SDS011;23667;43.246;26.576;2022-07-24T00:00:48;4.53;;;3.97;;
37823;SDS011;23667;43.246;26.576;2022-07-24T00:03:14;13.30;;;7.05;;
37823;SDS011;23667;43.246;26.576;2022-07-24T00:05:39;11.10;;;4.53;;
37823;SDS011;23667;43.246;26.576;2022-07-24T00:08:04;3.15;;;2.38;;
37823;SDS011;23667;43.246;26.576;2022-07-24T00:10:30;7.13;;;3.63;;
37823;SDS011;23667;43.246;26.576;2022-07-24T00:12:56;6.32;;;2.95;;
37823;SDS011;23667;43.246;26.576;2022-07-24T00:15:21;12.00;;;7.32;;
37823;SDS011;23667;43.246;26.576;2022-07-24T00:17:47;10.45;;;2.95;;
37823;SDS011;23667;43.246;26.576;2022-07-24T00:20:12;7.13;;;3.88;;
37823;SDS011;23667;43.246;26.576;2022-07-24T00:22:38;9.95;;;3.28;;
37823;SDS011;23667;43.246;26.576;2022-07-24T00:25:03;12.10;;;3.38;;
37823;SDS011;23667;43.246;26.576;2022-07-24T00:27:29;4.43;;;2.50;;
37823;SDS011;23667;43.246;26.576;2022-07-24T00:29:55;6.38;;;2.53;;
37823;SDS011;23667;43.246;26.576;2022-07-24T00:32:20;9.48;;;2.88;;
37823;SDS011;23667;43.246;26.576;2022-07-24T00:34:46;8.63;;;2.55;;
37823;SDS011;23667;43.246;26.576;2022-07-24T00:37:12;3.42;;;2.35;;
37823;SDS011;23667;43.246;26.576;2022-07-24T00:39:37;3.67;;;2.25;;
37823;SDS011;23667;43.246;26.576;2022-07-24T00:42:03;7.30;;;1.85;;
37823;SDS011;23667;43.246;26.576;2022-07-24T00:44:28;7.05;;;2.45;;
37823;SDS011;23667;43.246;26.576;2022-07-24T00:46:54;4.35;;;2.40;;
37823;SDS011;23667;43.246;26.576;2022-07-24T00:49:20;10.27;;;2.60;;
37823;SDS011;23667;43.246;26.576;2022-07-24T00:51:46;7.28;;;2.85;;
37823;SDS011;23667;43.246;26.576;2022-07-24T00:54:14;7.07;;;2.83;;
37823;SDS011;23667;43.246;26.576;2022-07-24T00:56:41;7.63;;;2.33;;
37823;SDS011;23667;43.246;26.576;2022-07-24T00:59:09;6.82;;;2.63;;
37823;SDS011;23667;43.246;26.576;2022-07-24T01:01:35;10.25;;;2.63;;
37823;SDS011;23667;43.246;26.576;2022-07-24T01:04:01;5.05;;;2.25;;
37823;SDS011;23667;43.246;26.576;2022-07-24T01:06:27;13.57;;;3.20;;
37823;SDS011;23667;43.246;26.576;2022-07-24T01:08:53;9.50;;;2.55;;
37823;SDS011;23667;43.246;26.576;2022-07-24T01:11:19;5.63;;;2.15;;
37823;SDS011;23667;43.246;26.576;2022-07-24T01:13:46;7.93;;;2.60;;
37823;SDS011;23667;43.246;26.576;2022-07-24T01:16:13;7.57;;;2.78;;
37823;SDS011;23667;43.246;26.576;2022-07-24T01:18:39;9.98;;;3.00;;
37823;SDS011;23667;43.246;26.576;2022-07-24T01:21:04;5.07;;;2.58;;
37823;SDS011;23667;43.246;26.576;2022-07-24T01:23:30;6.50;;;2.38;;
37823;SDS011;23667;43.246;26.576;2022-07-24T01:25:56;8.77;;;3.10;;
37823;SDS011;23667;43.246;26.576;2022-07-24T01:28:22;10.40;;;3.50;;
37823;SDS011;23667;43.246;26.576;2022-07-24T01:30:47;7.45;;;3.13;;
37823;SDS011;23667;43.246;26.576;2022-07-24T01:33:13;9.88;;;2.83;;
37823;SDS011;23667;43.246;26.576;2022-07-24T01:35:39;14.10;;;3.30;;
37823;SDS011;23667;43.246;26.576;2022-07-24T01:38:05;5.40;;;3.47;;
37823;SDS011;23667;43.246;26.576;2022-07-24T01:40:31;5.88;;;2.90;;
37823;SDS011;23667;43.246;26.576;2022-07-24T01:42:56;6.00;;;2.83;;
37823;SDS011;23667;43.246;26.576;2022-07-24T01:45:22;11.30;;;3.10;;
37823;SDS011;23667;43.246;26.576;2022-07-24T01:47:48;8.90;;;3.38;;
37823;SDS011;23667;43.246;26.576;2022-07-24T01:50:13;8.85;;;3.60;;
37823;SDS011;23667;43.246;26.576;2022-07-24T01:52:39;7.57;;;2.80;;
37823;SDS011;23667;43.246;26.576;2022-07-24T01:55:05;4.03;;;3.05;;
37823;SDS011;23667;43.246;26.576;2022-07-24T01:57:32;4.88;;;2.75;;
37823;SDS011;23667;43.246;26.576;2022-07-24T01:59:58;15.57;;;3.42;;
37823;SDS011;23667;43.246;26.576;2022-07-24T02:02:25;13.10;;;3.28;;
37823;SDS011;23667;43.246;26.576;2022-07-24T02:04:51;25.13;;;4.28;;
37823;SDS011;23667;43.246;26.576;2022-07-24T02:07:17;13.00;;;3.50;;
37823;SDS011;23667;43.246;26.576;2022-07-24T02:09:42;31.52;;;4.88;;
37823;SDS011;23667;43.246;26.576;2022-07-24T02:12:08;7.10;;;3.05;;
37823;SDS011;23667;43.246;26.576;2022-07-24T02:14:34;10.77;;;2.75;;
37823;SDS011;23667;43.246;26.576;2022-07-24T02:16:59;5.60;;;3.30;;
37823;SDS011;23667;43.246;26.576;2022-07-24T02:19:25;9.38;;;3.65;;
37823;SDS011;23667;43.246;26.576;2022-07-24T02:21:50;9.18;;;3.67;;
37823;SDS011;23667;43.246;26.576;2022-07-24T02:24:16;18.13;;;3.30;;
37823;SDS011;23667;43.246;26.576;2022-07-24T02:26:41;9.07;;;3.00;;
37823;SDS011;23667;43.246;26.576;2022-07-24T02:29:07;5.53;;;3.58;;
37823;SDS011;23667;43.246;26.576;2022-07-24T02:31:33;14.85;;;3.90;;
37823;SDS011;23667;43.246;26.576;2022-07-24T02:33:59;7.38;;;3.00;;
37823;SDS011;23667;43.246;26.576;2022-07-24T02:36:25;7.65;;;3.30;;
37823;SDS011;23667;43.246;26.576;2022-07-24T02:38:50;10.45;;;3.20;;
37823;SDS011;23667;43.246;26.576;2022-07-24T02:41:16;8.98;;;3.33;;
37823;SDS011;23667;43.246;26.576;2022-07-24T02:43:42;5.05;;;2.63;;
37823;SDS011;23667;43.246;26.576;2022-07-24T02:46:07;5.22;;;2.97;;
37823;SDS011;23667;43.246;26.576;2022-07-24T02:48:33;7.03;;;3.33;;
37823;SDS011;23667;43.246;26.576;2022-07-24T02:50:58;10.25;;;3.95;;
37823;SDS011;23667;43.246;26.576;2022-07-24T02:53:24;11.57;;;3.72;;
37823;SDS011;23667;43.246;26.576;2022-07-24T02:55:50;16.77;;;3.75;;
37823;SDS011;23667;43.246;26.576;2022-07-24T02:58:15;11.82;;;3.72;;
37823;SDS011;23667;43.246;26.576;2022-07-24T03:00:41;7.93;;;3.72;;
37823;SDS011;23667;43.246;26.576;2022-07-24T03:03:07;6.95;;;3.53;;
37823;SDS011;23667;43.246;26.576;2022-07-24T03:05:32;6.78;;;3.35;;
37823;SDS011;23667;43.246;26.576;2022-07-24T03:07:58;10.80;;;3.78;;
37823;SDS011;23667;43.246;26.576;2022-07-24T03:10:23;14.25;;;3.28;;
37823;SDS011;23667;43.246;26.576;2022-07-24T03:12:49;12.77;;;3.00;;
37823;SDS011;23667;43.246;26.576;2022-07-24T03:15:15;10.18;;;3.25;;
37823;SDS011;23667;43.246;26.576;2022-07-24T03:17:50;13.70;;;2.97;;
37823;SDS011;23667;43.246;26.576;2022-07-24T03:20:17;10.32;;;3.90;;
37823;SDS011;23667;43.246;26.576;2022-07-24T03:22:44;10.40;;;3.30;;
37823;SDS011;23667;43.246;26.576;2022-07-24T03:25:10;10.00;;;3.67;;
37823;SDS011;23667;43.246;26.576;2022-07-24T03:27:36;9.27;;;3.17;;
37823;SDS011;23667;43.246;26.576;2022-07-24T03:30:03;12.40;;;3.72;;
37823;SDS011;23667;43.246;26.576;2022-07-24T03:32:29;12.75;;;3.50;;
37823;SDS011;23667;43.246;26.576;2022-07-24T03:34:55;7.45;;;3.10;;
37823;SDS011;23667;43.246;26.576;2022-07-24T03:37:21;6.25;;;3.45;;
37823;SDS011;23667;43.246;26.576;2022-07-24T03:39:46;7.75;;;4.13;;
37823;SDS011;23667;43.246;26.576;2022-07-24T03:42:12;9.13;;;3.75;;
37823;SDS011;23667;43.246;26.576;2022-07-24T03:44:37;13.27;;;3.92;;
37823;SDS011;23667;43.246;26.576;2022-07-24T03:47:03;10.85;;;4.20;;
37823;SDS011;23667;43.246;26.576;2022-07-24T03:49:29;11.70;;;3.70;;
37823;SDS011;23667;43.246;26.576;2022-07-24T03:51:54;9.38;;;3.88;;
37823;SDS011;23667;43.246;26.576;2022-07-24T03:54:20;8.38;;;3.60;;
37823;SDS011;23667;43.246;26.576;2022-07-24T03:56:47;17.73;;;4.25;;
37823;SDS011;23667;43.246;26.576;2022-07-24T03:59:12;13.25;;;3.90;;
37823;SDS011;23667;43.246;26.576;2022-07-24T04:01:38;9.55;;;4.30;;
37823;SDS011;23667;43.246;26.576;2022-07-24T04:04:03;11.80;;;4.00;;
37823;SDS011;23667;43.246;26.576;2022-07-24T04:06:32;10.70;;;3.67;;
37823;SDS011;23667;43.246;26.576;2022-07-24T04:08:58;10.57;;;3.92;;
37823;SDS011;23667;43.246;26.576;2022-07-24T04:11:24;18.30;;;3.65;;
37823;SDS011;23667;43.246;26.576;2022-07-24T04:13:50;7.75;;;3.83;;
37823;SDS011;23667;43.246;26.576;2022-07-24T04:16:16;10.98;;;4.10;;
37823;SDS011;23667;43.246;26.576;2022-07-24T04:18:41;8.05;;;3.65;;
37823;SDS011;23667;43.246;26.576;2022-07-24T04:21:07;12.18;;;3.60;;
37823;SDS011;23667;43.246;26.576;2022-07-24T04:23:32;15.70;;;3.67;;
37823;SDS011;23667;43.246;26.576;2022-07-24T04:25:58;13.43;;;3.78;;
37823;SDS011;23667;43.246;26.576;2022-07-24T04:28:24;10.90;;;3.08;;
37823;SDS011;23667;43.246;26.576;2022-07-24T04:30:49;11.90;;;3.50;;
37823;SDS011;23667;43.246;26.576;2022-07-24T04:33:15;11.45;;;3.63;;
37823;SDS011;23667;43.246;26.576;2022-07-24T04:35:40;9.02;;;3.28;;
37823;SDS011;23667;43.246;26.576;2022-07-24T04:38:06;6.53;;;3.40;;
37823;SDS011;23667;43.246;26.576;2022-07-24T04:40:31;7.43;;;3.42;;
37823;SDS011;23667;43.246;26.576;2022-07-24T04:42:57;9.40;;;3.40;;
37823;SDS011;23667;43.246;26.576;2022-07-24T04:45:22;10.02;;;2.78;;
37823;SDS011;23667;43.246;26.576;2022-07-24T04:47:48;10.88;;;3.65;;
37823;SDS011;23667;43.246;26.576;2022-07-24T04:50:14;9.10;;;3.08;;
37823;SDS011;23667;43.246;26.576;2022-07-24T04:52:39;8.73;;;3.83;;
37823;SDS011;23667;43.246;26.576;2022-07-24T04:55:05;8.38;;;3.33;;
37823;SDS011;23667;43.246;26.576;2022-07-24T04:57:31;8.23;;;2.67;;
37823;SDS011;23667;43.246;26.576;2022-07-24T04:59:57;13.10;;;3.40;;
37823;SDS011;23667;43.246;26.576;2022-07-24T05:02:22;7.85;;;2.90;;
37823;SDS011;23667;43.246;26.576;2022-07-24T05:04:48;7.18;;;3.35;;
37823;SDS011;23667;43.246;26.576;2022-07-24T05:07:13;16.80;;;3.42;;
37823;SDS011;23667;43.246;26.576;2022-07-24T05:09:39;9.85;;;3.22;;
37823;SDS011;23667;43.246;26.576;2022-07-24T05:12:11;13.57;;;3.90;;
37823;SDS011;23667;43.246;26.576;2022-07-24T05:14:39;11.85;;;3.58;;
37823;SDS011;23667;43.246;26.576;2022-07-24T05:17:08;11.57;;;3.15;;
37823;SDS011;23667;43.246;26.576;2022-07-24T05:19:33;14.88;;;3.47;;
37823;SDS011;23667;43.246;26.576;2022-07-24T05:21:59;10.75;;;3.15;;
37823;SDS011;23667;43.246;26.576;2022-07-24T05:24:32;32.85;;;4.57;;
37823;SDS011;23667;43.246;26.576;2022-07-24T05:26:58;16.38;;;3.17;;
37823;SDS011;23667;43.246;26.576;2022-07-24T05:29:23;4.88;;;2.15;;
37823;SDS011;23667;43.246;26.576;2022-07-24T05:31:49;5.90;;;2.30;;
37823;SDS011;23667;43.246;26.576;2022-07-24T05:34:16;13.77;;;2.05;;
37823;SDS011;23667;43.246;26.576;2022-07-24T05:36:42;9.13;;;2.90;;
37823;SDS011;23667;43.246;26.576;2022-07-24T05:39:08;4.63;;;1.98;;
37823;SDS011;23667;43.246;26.576;2022-07-24T05:41:33;4.78;;;2.40;;
37823;SDS011;23667;43.246;26.576;2022-07-24T05:43:59;7.75;;;2.72;;
37823;SDS011;23667;43.246;26.576;2022-07-24T05:46:25;8.88;;;1.80;;
37823;SDS011;23667;43.246;26.576;2022-07-24T05:48:50;8.70;;;2.13;;
37823;SDS011;23667;43.246;26.576;2022-07-24T05:51:16;6.45;;;2.33;;
37823;SDS011;23667;43.246;26.576;2022-07-24T05:53:41;6.85;;;2.40;;
37823;SDS011;23667;43.246;26.576;2022-07-24T05:56:07;6.50;;;1.77;;
37823;SDS011;23667;43.246;26.576;2022-07-24T05:58:32;4.07;;;1.98;;
37823;SDS011;23667;43.246;26.576;2022-07-24T06:00:58;10.32;;;2.53;;
37823;SDS011;23667;43.246;26.576;2022-07-24T06:03:23;8.32;;;2.10;;
37823;SDS011;23667;43.246;26.576;2022-07-24T06:05:49;7.45;;;1.95;;
37823;SDS011;23667;43.246;26.576;2022-07-24T06:08:14;11.57;;;1.80;;
37823;SDS011;23667;43.246;26.576;2022-07-24T06:10:40;4.60;;;2.05;;
37823;SDS011;23667;43.246;26.576;2022-07-24T06:13:05;11.82;;;2.00;;
37823;SDS011;23667;43.246;26.576;2022-07-24T06:15:31;7.03;;;2.30;;
37823;SDS011;23667;43.246;26.576;2022-07-24T06:17:57;13.25;;;2.25;;
37823;SDS011;23667;43.246;26.576;2022-07-24T06:20:23;13.60;;;2.22;;
37823;SDS011;23667;43.246;26.576;2022-07-24T06:22:48;6.40;;;1.85;;
37823;SDS011;23667;43.246;26.576;2022-07-24T06:25:14;3.47;;;2.13;;
37823;SDS011;23667;43.246;26.576;2022-07-24T06:27:43;5.75;;;1.95;;
37823;SDS011;23667;43.246;26.576;2022-07-24T06:30:20;6.03;;;1.80;;
37823;SDS011;23667;43.246;26.576;2022-07-24T06:32:47;6.05;;;1.50;;
37823;SDS011;23667;43.246;26.576;2022-07-24T06:35:14;8.88;;;1.80;;
37823;SDS011;23667;43.246;26.576;2022-07-24T06:37:40;5.05;;;1.75;;
37823;SDS011;23667;43.246;26.576;2022-07-24T06:40:06;7.60;;;1.65;;
37823;SDS011;23667;43.246;26.576;2022-07-24T06:42:32;4.95;;;1.65;;
37823;SDS011;23667;43.246;26.576;2022-07-24T06:44:58;6.43;;;1.70;;
37823;SDS011;23667;43.246;26.576;2022-07-24T06:47:23;6.25;;;1.83;;
37823;SDS011;23667;43.246;26.576;2022-07-24T06:49:51;4.35;;;1.80;;
37823;SDS011;23667;43.246;26.576;2022-07-24T06:52:17;9.40;;;2.03;;
37823;SDS011;23667;43.246;26.576;2022-07-24T06:54:42;7.60;;;1.98;;
37823;SDS011;23667;43.246;26.576;2022-07-24T06:57:08;14.70;;;2.10;;
37823;SDS011;23667;43.246;26.576;2022-07-24T06:59:34;8.75;;;2.45;;
37823;SDS011;23667;43.246;26.576;2022-07-24T07:01:59;7.93;;;2.53;;
37823;SDS011;23667;43.246;26.576;2022-07-24T07:04:24;6.90;;;2.45;;
37823;SDS011;23667;43.246;26.576;2022-07-24T07:06:50;3.35;;;1.73;;
37823;SDS011;23667;43.246;26.576;2022-07-24T07:09:15;5.05;;;1.80;;
37823;SDS011;23667;43.246;26.576;2022-07-24T07:11:41;10.07;;;1.92;;
37823;SDS011;23667;43.246;26.576;2022-07-24T07:14:07;10.90;;;1.83;;
37823;SDS011;23667;43.246;26.576;2022-07-24T07:16:33;8.90;;;1.63;;
37823;SDS011;23667;43.246;26.576;2022-07-24T07:18:59;7.07;;;1.88;;
37823;SDS011;23667;43.246;26.576;2022-07-24T07:21:26;7.40;;;1.73;;
37823;SDS011;23667;43.246;26.576;2022-07-24T07:23:51;5.40;;;1.73;;
37823;SDS011;23667;43.246;26.576;2022-07-24T07:26:17;4.93;;;1.40;;
37823;SDS011;23667;43.246;26.576;2022-07-24T07:28:43;4.40;;;1.60;;
37823;SDS011;23667;43.246;26.576;2022-07-24T07:31:09;6.93;;;1.77;;
37823;SDS011;23667;43.246;26.576;2022-07-24T07:33:35;7.15;;;1.05;;
37823;SDS011;23667;43.246;26.576;2022-07-24T07:36:00;5.82;;;1.50;;
37823;SDS011;23667;43.246;26.576;2022-07-24T07:38:26;3.70;;;1.90;;
37823;SDS011;23667;43.246;26.576;2022-07-24T07:40:51;15.43;;;2.35;;
37823;SDS011;23667;43.246;26.576;2022-07-24T07:43:17;9.77;;;2.10;;
37823;SDS011;23667;43.246;26.576;2022-07-24T07:45:42;9.48;;;1.70;;
37823;SDS011;23667;43.246;26.576;2022-07-24T07:48:08;6.45;;;1.77;;
37823;SDS011;23667;43.246;26.576;2022-07-24T07:50:33;4.80;;;1.50;;
37823;SDS011;23667;43.246;26.576;2022-07-24T07:52:59;7.53;;;1.67;;
37823;SDS011;23667;43.246;26.576;2022-07-24T07:55:25;11.63;;;2.05;;
37823;SDS011;23667;43.246;26.576;2022-07-24T07:57:50;8.32;;;1.50;;
37823;SDS011;23667;43.246;26.576;2022-07-24T08:00:16;5.57;;;1.80;;
37823;SDS011;23667;43.246;26.576;2022-07-24T08:02:43;11.32;;;1.70;;
37823;SDS011;23667;43.246;26.576;2022-07-24T08:05:09;4.35;;;1.77;;
37823;SDS011;23667;43.246;26.576;2022-07-24T08:07:34;6.00;;;1.70;;
37823;SDS011;23667;43.246;26.576;2022-07-24T08:10:00;7.20;;;1.80;;
37823;SDS011;23667;43.246;26.576;2022-07-24T08:12:26;24.00;;;2.58;;
37823;SDS011;23667;43.246;26.576;2022-07-24T08:14:51;5.30;;;1.52;;
37823;SDS011;23667;43.246;26.576;2022-07-24T08:17:17;4.90;;;2.10;;
37823;SDS011;23667;43.246;26.576;2022-07-24T08:19:42;6.22;;;1.58;;
37823;SDS011;23667;43.246;26.576;2022-07-24T08:22:08;5.72;;;1.90;;
37823;SDS011;23667;43.246;26.576;2022-07-24T08:24:34;5.65;;;1.63;;
37823;SDS011;23667;43.246;26.576;2022-07-24T08:27:00;8.55;;;1.60;;
37823;SDS011;23667;43.246;26.576;2022-07-24T08:29:26;7.78;;;1.63;;
37823;SDS011;23667;43.246;26.576;2022-07-24T08:31:52;4.13;;;1.50;;
37823;SDS011;23667;43.246;26.576;2022-07-24T08:34:17;6.55;;;1.65;;
37823;SDS011;23667;43.246;26.576;2022-07-24T08:36:43;6.97;;;1.73;;
37823;SDS011;23667;43.246;26.576;2022-07-24T08:39:12;4.30;;;1.20;;
37823;SDS011;23667;43.246;26.576;2022-07-24T08:41:39;9.45;;;1.75;;
37823;SDS011;23667;43.246;26.576;2022-07-24T08:44:04;9.80;;;1.77;;
37823;SDS011;23667;43.246;26.576;2022-07-24T08:46:31;5.63;;;1.60;;
37823;SDS011;23667;43.246;26.576;2022-07-24T08:48:58;9.13;;;1.90;;
37823;SDS011;23667;43.246;26.576;2022-07-24T08:51:28;9.40;;;1.73;;
37823;SDS011;23667;43.246;26.576;2022-07-24T08:53:58;5.88;;;2.08;;
37823;SDS011;23667;43.246;26.576;2022-07-24T08:56:24;5.35;;;2.13;;
37823;SDS011;23667;43.246;26.576;2022-07-24T08:58:50;4.80;;;2.28;;
37823;SDS011;23667;43.246;26.576;2022-07-24T09:01:16;10.50;;;2.10;;
37823;SDS011;23667;43.246;26.576;2022-07-24T09:03:43;5.85;;;2.10;;
37823;SDS011;23667;43.246;26.576;2022-07-24T09:06:10;4.15;;;2.20;;
37823;SDS011;23667;43.246;26.576;2022-07-24T09:08:37;14.43;;;2.60;;
37823;SDS011;23667;43.246;26.576;2022-07-24T09:11:07;9.90;;;2.10;;
37823;SDS011;23667;43.246;26.576;2022-07-24T09:13:34;7.28;;;1.95;;
37823;SDS011;23667;43.246;26.576;2022-07-24T09:16:20;16.50;;;3.03;;
37823;SDS011;23667;43.246;26.576;2022-07-24T09:18:48;5.22;;;1.98;;
37823;SDS011;23667;43.246;26.576;2022-07-24T09:21:35;6.90;;;2.60;;
37823;SDS011;23667;43.246;26.576;2022-07-24T09:24:12;4.63;;;2.17;;
37823;SDS011;23667;43.246;26.576;2022-07-24T09:26:43;5.55;;;1.92;;
37823;SDS011;23667;43.246;26.576;2022-07-24T09:29:11;7.28;;;2.67;;
37823;SDS011;23667;43.246;26.576;2022-07-24T09:34:26;9.52;;;1.98;;
37823;SDS011;23667;43.246;26.576;2022-07-24T09:39:26;7.63;;;2.25;;
37823;SDS011;23667;43.246;26.576;2022-07-24T09:41:53;9.00;;;2.83;;
37823;SDS011;23667;43.246;26.576;2022-07-24T09:44:19;9.75;;;2.30;;
37823;SDS011;23667;43.246;26.576;2022-07-24T09:49:21;6.25;;;2.00;;
37823;SDS011;23667;43.246;26.576;2022-07-24T09:52:05;11.00;;;3.03;;
37823;SDS011;23667;43.246;26.576;2022-07-24T09:54:40;6.22;;;1.92;;
37823;SDS011;23667;43.246;26.576;2022-07-24T09:57:26;6.25;;;2.30;;
37823;SDS011;23667;43.246;26.576;2022-07-24T09:59:57;7.65;;;2.20;;
37823;SDS011;23667;43.246;26.576;2022-07-24T10:02:25;15.80;;;2.58;;
37823;SDS011;23667;43.246;26.576;2022-07-24T10:04:52;5.93;;;2.25;;
37823;SDS011;23667;43.246;26.576;2022-07-24T10:07:19;7.63;;;2.40;;
37823;SDS011;23667;43.246;26.576;2022-07-24T10:09:47;11.60;;;2.88;;
37823;SDS011;23667;43.246;26.576;2022-07-24T10:12:16;8.00;;;2.45;;
37823;SDS011;23667;43.246;26.576;2022-07-24T10:14:44;8.48;;;2.45;;
37823;SDS011;23667;43.246;26.576;2022-07-24T10:17:11;11.52;;;2.15;;
37823;SDS011;23667;43.246;26.576;2022-07-24T10:19:44;9.20;;;2.08;;
37823;SDS011;23667;43.246;26.576;2022-07-24T10:22:18;10.60;;;2.35;;
37823;SDS011;23667;43.246;26.576;2022-07-24T10:27:36;8.27;;;2.40;;
37823;SDS011;23667;43.246;26.576;2022-07-24T10:30:06;6.75;;;2.70;;
37823;SDS011;23667;43.246;26.576;2022-07-24T10:32:34;10.73;;;2.28;;
37823;SDS011;23667;43.246;26.576;2022-07-24T10:35:08;7.22;;;2.10;;
37823;SDS011;23667;43.246;26.576;2022-07-24T10:37:51;9.05;;;2.30;;
37823;SDS011;23667;43.246;26.576;2022-07-24T10:40:24;4.65;;;2.00;;
37823;SDS011;23667;43.246;26.576;2022-07-24T10:43:12;5.15;;;2.17;;
37823;SDS011;23667;43.246;26.576;2022-07-24T10:45:46;4.78;;;1.98;;
37823;SDS011;23667;43.246;26.576;2022-07-24T10:53:42;5.68;;;1.80;;
37823;SDS011;23667;43.246;26.576;2022-07-24T10:56:24;4.35;;;2.03;;
37823;SDS011;23667;43.246;26.576;2022-07-24T10:59:00;8.45;;;2.20;;
37823;SDS011;23667;43.246;26.576;2022-07-24T11:01:39;8.55;;;2.03;;
37823;SDS011;23667;43.246;26.576;2022-07-24T11:06:44;10.40;;;2.40;;
37823;SDS011;23667;43.246;26.576;2022-07-24T11:09:15;8.77;;;2.00;;
37823;SDS011;23667;43.246;26.576;2022-07-24T11:12:04;9.65;;;2.58;;
37823;SDS011;23667;43.246;26.576;2022-07-24T11:20:04;13.23;;;2.47;;
37823;SDS011;23667;43.246;26.576;2022-07-24T11:22:39;11.45;;;2.42;;
37823;SDS011;23667;43.246;26.576;2022-07-24T11:25:12;7.22;;;2.13;;
37823;SDS011;23667;43.246;26.576;2022-07-24T11:28:11;6.15;;;2.22;;
37823;SDS011;23667;43.246;26.576;2022-07-24T11:30:33;11.88;;;2.53;;
37823;SDS011;23667;43.246;26.576;2022-07-24T11:32:58;7.15;;;2.10;;
37823;SDS011;23667;43.246;26.576;2022-07-24T11:35:28;6.13;;;2.50;;
37823;SDS011;23667;43.246;26.576;2022-07-24T11:37:54;7.60;;;2.35;;
37823;SDS011;23667;43.246;26.576;2022-07-24T11:40:21;10.55;;;2.55;;
37823;SDS011;23667;43.246;26.576;2022-07-24T11:42:53;12.52;;;2.63;;
37823;SDS011;23667;43.246;26.576;2022-07-24T11:45:22;11.48;;;2.45;;
37823;SDS011;23667;43.246;26.576;2022-07-24T11:47:48;12.73;;;2.70;;
37823;SDS011;23667;43.246;26.576;2022-07-24T11:50:14;13.05;;;2.25;;
37823;SDS011;23667;43.246;26.576;2022-07-24T11:52:41;3.13;;;1.90;;
37823;SDS011;23667;43.246;26.576;2022-07-24T11:57:37;7.50;;;2.40;;
37823;SDS011;23667;43.246;26.576;2022-07-24T12:00:11;8.02;;;2.45;;
37823;SDS011;23667;43.246;26.576;2022-07-24T12:02:50;9.02;;;2.63;;
37823;SDS011;23667;43.246;26.576;2022-07-24T12:05:26;9.10;;;2.28;;
37823;SDS011;23667;43.246;26.576;2022-07-24T12:07:58;13.38;;;2.35;;
37823;SDS011;23667;43.246;26.576;2022-07-24T12:10:25;6.38;;;2.25;;
37823;SDS011;23667;43.246;26.576;2022-07-24T12:12:52;13.00;;;2.83;;
37823;SDS011;23667;43.246;26.576;2022-07-24T12:15:19;8.43;;;2.83;;
37823;SDS011;23667;43.246;26.576;2022-07-24T12:20:26;12.10;;;2.17;;
37823;SDS011;23667;43.246;26.576;2022-07-24T12:22:57;12.18;;;2.15;;
37823;SDS011;23667;43.246;26.576;2022-07-24T12:25:25;3.53;;;1.80;;
37823;SDS011;23667;43.246;26.576;2022-07-24T12:28:00;10.90;;;3.22;;
37823;SDS011;23667;43.246;26.576;2022-07-24T12:30:37;4.55;;;2.05;;
37823;SDS011;23667;43.246;26.576;2022-07-24T12:33:08;5.47;;;2.17;;
37823;SDS011;23667;43.246;26.576;2022-07-24T12:38:28;7.13;;;2.20;;
37823;SDS011;23667;43.246;26.576;2022-07-24T12:41:08;8.70;;;2.10;;
37823;SDS011;23667;43.246;26.576;2022-07-24T12:43:45;14.75;;;2.35;;
37823;SDS011;23667;43.246;26.576;2022-07-24T12:46:28;16.63;;;2.85;;
37823;SDS011;23667;43.246;26.576;2022-07-24T12:48:56;12.38;;;2.88;;
37823;SDS011;23667;43.246;26.576;2022-07-24T12:54:24;18.77;;;2.88;;
37823;SDS011;23667;43.246;26.576;2022-07-24T12:56:54;13.43;;;3.15;;
37823;SDS011;23667;43.246;26.576;2022-07-24T12:59:41;12.40;;;2.75;;
37823;SDS011;23667;43.246;26.576;2022-07-24T13:04:44;9.80;;;2.70;;
37823;SDS011;23667;43.246;26.576;2022-07-24T13:07:12;11.35;;;2.90;;
37823;SDS011;23667;43.246;26.576;2022-07-24T13:09:39;6.07;;;2.88;;
37823;SDS011;23667;43.246;26.576;2022-07-24T13:12:05;10.60;;;2.85;;
37823;SDS011;23667;43.246;26.576;2022-07-24T13:14:32;10.73;;;2.75;;
37823;SDS011;23667;43.246;26.576;2022-07-24T13:17:01;15.57;;;2.53;;
37823;SDS011;23667;43.246;26.576;2022-07-24T13:19:34;8.23;;;3.17;;
37823;SDS011;23667;43.246;26.576;2022-07-24T13:22:00;6.75;;;2.03;;
37823;SDS011;23667;43.246;26.576;2022-07-24T13:24:26;12.60;;;3.10;;
37823;SDS011;23667;43.246;26.576;2022-07-24T13:26:51;15.75;;;2.55;;
37823;SDS011;23667;43.246;26.576;2022-07-24T13:29:17;14.65;;;3.03;;
37823;SDS011;23667;43.246;26.576;2022-07-24T13:31:43;10.63;;;3.00;;
37823;SDS011;23667;43.246;26.576;2022-07-24T13:34:09;7.50;;;2.30;;
37823;SDS011;23667;43.246;26.576;2022-07-24T13:36:35;6.93;;;2.35;;
37823;SDS011;23667;43.246;26.576;2022-07-24T13:39:04;4.85;;;2.70;;
37823;SDS011;23667;43.246;26.576;2022-07-24T13:41:30;8.80;;;2.83;;
37823;SDS011;23667;43.246;26.576;2022-07-24T13:43:56;9.95;;;2.55;;
37823;SDS011;23667;43.246;26.576;2022-07-24T13:46:22;8.15;;;2.90;;
37823;SDS011;23667;43.246;26.576;2022-07-24T13:48:48;8.35;;;2.53;;
37823;SDS011;23667;43.246;26.576;2022-07-24T13:51:14;7.15;;;2.13;;
37823;SDS011;23667;43.246;26.576;2022-07-24T13:53:40;9.32;;;2.45;;
37823;SDS011;23667;43.246;26.576;2022-07-24T13:56:06;14.43;;;2.67;;
37823;SDS011;23667;43.246;26.576;2022-07-24T13:58:32;15.70;;;2.22;;
37823;SDS011;23667;43.246;26.576;2022-07-24T14:01:00;13.93;;;2.58;;
37823;SDS011;23667;43.246;26.576;2022-07-24T14:03:26;4.60;;;2.00;;
37823;SDS011;23667;43.246;26.576;2022-07-24T14:05:51;8.45;;;2.20;;
37823;SDS011;23667;43.246;26.576;2022-07-24T14:08:17;11.10;;;2.97;;
37823;SDS011;23667;43.246;26.576;2022-07-24T14:10:42;6.95;;;2.00;;
37823;SDS011;23667;43.246;26.576;2022-07-24T14:13:08;10.02;;;2.55;;
37823;SDS011;23667;43.246;26.576;2022-07-24T14:15:33;7.15;;;2.00;;
37823;SDS011;23667;43.246;26.576;2022-07-24T14:18:01;8.35;;;2.50;;
37823;SDS011;23667;43.246;26.576;2022-07-24T14:20:26;10.52;;;2.47;;
37823;SDS011;23667;43.246;26.576;2022-07-24T14:22:52;6.25;;;2.50;;
37823;SDS011;23667;43.246;26.576;2022-07-24T14:25:17;11.88;;;2.40;;
37823;SDS011;23667;43.246;26.576;2022-07-24T14:27:43;5.40;;;2.35;;
37823;SDS011;23667;43.246;26.576;2022-07-24T14:30:09;9.45;;;2.50;;
37823;SDS011;23667;43.246;26.576;2022-07-24T14:32:35;11.98;;;2.92;;
37823;SDS011;23667;43.246;26.576;2022-07-24T14:35:00;10.70;;;3.00;;
37823;SDS011;23667;43.246;26.576;2022-07-24T14:37:31;10.45;;;2.67;;
37823;SDS011;23667;43.246;26.576;2022-07-24T14:39:59;12.55;;;3.10;;
37823;SDS011;23667;43.246;26.576;2022-07-24T14:42:26;10.02;;;3.28;;
37823;SDS011;23667;43.246;26.576;2022-07-24T14:44:51;13.25;;;2.13;;
37823;SDS011;23667;43.246;26.576;2022-07-24T14:47:17;22.02;;;3.10;;
37823;SDS011;23667;43.246;26.576;2022-07-24T14:49:43;6.28;;;1.92;;
37823;SDS011;23667;43.246;26.576;2022-07-24T14:52:08;7.43;;;2.00;;
37823;SDS011;23667;43.246;26.576;2022-07-24T14:54:38;9.95;;;2.38;;
37823;SDS011;23667;43.246;26.576;2022-07-24T14:57:05;10.85;;;2.50;;
37823;SDS011;23667;43.246;26.576;2022-07-24T14:59:31;7.57;;;2.35;;
37823;SDS011;23667;43.246;26.576;2022-07-24T15:01:57;5.70;;;2.08;;
37823;SDS011;23667;43.246;26.576;2022-07-24T15:04:23;6.30;;;1.75;;
37823;SDS011;23667;43.246;26.576;2022-07-24T15:06:48;4.35;;;1.48;;
37823;SDS011;23667;43.246;26.576;2022-07-24T15:09:14;11.23;;;2.10;;